Camden, Illinois
Current Conditions -  °F | °C
As of 10:35 AM on Friday 19 Dec 2014 (Local Time) from KMQB Reporting Station
Clear Clear  
Wind Chill: 29°   Ceiling: Unl
Heat Index: 29°   Visibility: 7mi
Dew Point: 23°   Wind: 3mph
Humidity: 79%   Direction: 90°E
Pressure: 30.35"   Gusts: NA
Location:  40.15°N, 90.77°W
Report Text: KMQB 191635Z AUTO 09003KT 7SM CLR M02/M05 A3035 RMK AO2 T10181050
Loading
Personal Weather Stations






























Interactive Weather Map New forecast layout! Learn more

10-Day Weather Forecast

Advertisements
Track Severe Weather on mobile